sensor_id;sensor_type;location;lat;lon;timestamp;P1;durP1;ratioP1;P2;durP2;ratioP2
63218;SDS011;49320;52.512;13.448;2024-02-26T00:02:10;12.23;;;9.05;;
63218;SDS011;49320;52.512;13.448;2024-02-26T00:04:37;12.50;;;9.30;;
63218;SDS011;49320;52.512;13.448;2024-02-26T00:07:04;11.80;;;9.07;;
63218;SDS011;49320;52.512;13.448;2024-02-26T00:09:31;11.30;;;8.63;;
63218;SDS011;49320;52.512;13.448;2024-02-26T00:11:59;9.88;;;7.93;;
63218;SDS011;49320;52.512;13.448;2024-02-26T00:14:26;9.57;;;7.95;;
63218;SDS011;49320;52.512;13.448;2024-02-26T00:16:53;10.55;;;8.45;;
63218;SDS011;49320;52.512;13.448;2024-02-26T00:19:20;10.80;;;8.13;;
63218;SDS011;49320;52.512;13.448;2024-02-26T00:21:47;8.85;;;7.63;;
63218;SDS011;49320;52.512;13.448;2024-02-26T00:24:13;11.68;;;7.97;;
63218;SDS011;49320;52.512;13.448;2024-02-26T00:26:40;10.20;;;7.78;;
63218;SDS011;49320;52.512;13.448;2024-02-26T00:29:08;9.80;;;7.57;;
63218;SDS011;49320;52.512;13.448;2024-02-26T00:31:36;8.30;;;7.40;;
63218;SDS011;49320;52.512;13.448;2024-02-26T00:34:04;8.32;;;6.90;;
63218;SDS011;49320;52.512;13.448;2024-02-26T00:36:31;9.40;;;7.80;;
63218;SDS011;49320;52.512;13.448;2024-02-26T00:38:58;8.35;;;7.50;;
63218;SDS011;49320;52.512;13.448;2024-02-26T00:41:25;9.57;;;7.45;;
63218;SDS011;49320;52.512;13.448;2024-02-26T00:43:52;9.77;;;7.78;;
63218;SDS011;49320;52.512;13.448;2024-02-26T00:46:18;10.93;;;7.63;;
63218;SDS011;49320;52.512;13.448;2024-02-26T00:48:45;10.02;;;7.95;;
63218;SDS011;49320;52.512;13.448;2024-02-26T00:51:12;10.57;;;7.28;;
63218;SDS011;49320;52.512;13.448;2024-02-26T00:53:39;8.93;;;7.30;;
63218;SDS011;49320;52.512;13.448;2024-02-26T00:56:07;11.82;;;7.45;;
63218;SDS011;49320;52.512;13.448;2024-02-26T00:58:33;9.27;;;6.53;;
63218;SDS011;49320;52.512;13.448;2024-02-26T01:01:00;6.78;;;5.93;;
63218;SDS011;49320;52.512;13.448;2024-02-26T01:03:27;7.35;;;6.13;;
63218;SDS011;49320;52.512;13.448;2024-02-26T01:05:54;8.65;;;5.53;;
63218;SDS011;49320;52.512;13.448;2024-02-26T01:08:24;5.68;;;4.97;;
63218;SDS011;49320;52.512;13.448;2024-02-26T01:10:51;6.75;;;4.97;;
63218;SDS011;49320;52.512;13.448;2024-02-26T01:13:18;7.05;;;5.47;;
63218;SDS011;49320;52.512;13.448;2024-02-26T01:15:45;7.53;;;5.20;;
63218;SDS011;49320;52.512;13.448;2024-02-26T01:18:12;6.63;;;4.90;;
63218;SDS011;49320;52.512;13.448;2024-02-26T01:20:39;6.55;;;4.78;;
63218;SDS011;49320;52.512;13.448;2024-02-26T01:23:06;8.07;;;5.28;;
63218;SDS011;49320;52.512;13.448;2024-02-26T01:25:33;6.80;;;4.93;;
63218;SDS011;49320;52.512;13.448;2024-02-26T01:28:00;5.90;;;5.30;;
63218;SDS011;49320;52.512;13.448;2024-02-26T01:30:27;5.68;;;4.88;;
63218;SDS011;49320;52.512;13.448;2024-02-26T01:32:53;5.43;;;4.65;;
63218;SDS011;49320;52.512;13.448;2024-02-26T01:35:20;5.88;;;5.03;;
63218;SDS011;49320;52.512;13.448;2024-02-26T01:37:47;6.82;;;5.03;;
63218;SDS011;49320;52.512;13.448;2024-02-26T01:40:14;6.22;;;4.63;;
63218;SDS011;49320;52.512;13.448;2024-02-26T01:42:44;5.10;;;3.83;;
63218;SDS011;49320;52.512;13.448;2024-02-26T01:45:13;5.13;;;4.22;;
63218;SDS011;49320;52.512;13.448;2024-02-26T01:47:51;5.07;;;3.95;;
63218;SDS011;49320;52.512;13.448;2024-02-26T01:50:19;5.97;;;4.47;;
63218;SDS011;49320;52.512;13.448;2024-02-26T01:52:49;4.50;;;3.80;;
63218;SDS011;49320;52.512;13.448;2024-02-26T01:55:17;5.32;;;4.15;;
63218;SDS011;49320;52.512;13.448;2024-02-26T01:57:45;5.45;;;4.45;;
63218;SDS011;49320;52.512;13.448;2024-02-26T02:00:18;4.72;;;4.13;;
63218;SDS011;49320;52.512;13.448;2024-02-26T02:02:46;4.82;;;3.90;;
63218;SDS011;49320;52.512;13.448;2024-02-26T02:05:15;4.72;;;3.80;;
63218;SDS011;49320;52.512;13.448;2024-02-26T02:07:43;5.07;;;4.00;;
63218;SDS011;49320;52.512;13.448;2024-02-26T02:10:11;4.50;;;3.90;;
63218;SDS011;49320;52.512;13.448;2024-02-26T02:12:38;4.43;;;3.70;;
63218;SDS011;49320;52.512;13.448;2024-02-26T02:15:06;4.63;;;3.70;;
63218;SDS011;49320;52.512;13.448;2024-02-26T02:17:34;4.28;;;3.88;;
63218;SDS011;49320;52.512;13.448;2024-02-26T02:20:01;4.70;;;3.80;;
63218;SDS011;49320;52.512;13.448;2024-02-26T02:22:30;3.80;;;3.25;;
63218;SDS011;49320;52.512;13.448;2024-02-26T02:24:58;5.30;;;3.47;;
63218;SDS011;49320;52.512;13.448;2024-02-26T02:27:26;5.82;;;4.00;;
63218;SDS011;49320;52.512;13.448;2024-02-26T02:29:55;5.05;;;3.58;;
63218;SDS011;49320;52.512;13.448;2024-02-26T02:32:22;4.90;;;3.80;;
63218;SDS011;49320;52.512;13.448;2024-02-26T02:34:51;4.07;;;3.50;;
63218;SDS011;49320;52.512;13.448;2024-02-26T02:37:19;4.63;;;3.85;;
63218;SDS011;49320;52.512;13.448;2024-02-26T02:39:46;4.13;;;3.58;;
63218;SDS011;49320;52.512;13.448;2024-02-26T02:42:13;4.93;;;3.78;;
63218;SDS011;49320;52.512;13.448;2024-02-26T02:44:39;4.35;;;3.70;;
63218;SDS011;49320;52.512;13.448;2024-02-26T02:47:07;5.75;;;4.10;;
63218;SDS011;49320;52.512;13.448;2024-02-26T02:49:33;5.82;;;3.65;;
63218;SDS011;49320;52.512;13.448;2024-02-26T02:52:01;4.75;;;3.58;;
63218;SDS011;49320;52.512;13.448;2024-02-26T02:54:28;4.90;;;3.63;;
63218;SDS011;49320;52.512;13.448;2024-02-26T02:56:54;4.95;;;4.05;;
63218;SDS011;49320;52.512;13.448;2024-02-26T02:59:21;4.72;;;3.70;;
63218;SDS011;49320;52.512;13.448;2024-02-26T03:01:48;6.00;;;3.75;;
63218;SDS011;49320;52.512;13.448;2024-02-26T03:04:15;6.20;;;4.07;;
63218;SDS011;49320;52.512;13.448;2024-02-26T03:06:42;5.88;;;3.88;;
63218;SDS011;49320;52.512;13.448;2024-02-26T03:09:09;4.22;;;3.20;;
63218;SDS011;49320;52.512;13.448;2024-02-26T03:11:36;5.28;;;4.03;;
63218;SDS011;49320;52.512;13.448;2024-02-26T03:14:03;4.55;;;3.47;;
63218;SDS011;49320;52.512;13.448;2024-02-26T03:16:31;4.72;;;3.45;;
63218;SDS011;49320;52.512;13.448;2024-02-26T03:18:58;4.28;;;3.28;;
63218;SDS011;49320;52.512;13.448;2024-02-26T03:21:25;5.20;;;3.13;;
63218;SDS011;49320;52.512;13.448;2024-02-26T03:23:52;5.35;;;3.70;;
63218;SDS011;49320;52.512;13.448;2024-02-26T03:26:19;4.22;;;3.30;;
63218;SDS011;49320;52.512;13.448;2024-02-26T03:28:48;4.50;;;3.47;;
63218;SDS011;49320;52.512;13.448;2024-02-26T03:31:15;4.40;;;3.50;;
63218;SDS011;49320;52.512;13.448;2024-02-26T03:33:42;4.43;;;3.20;;
63218;SDS011;49320;52.512;13.448;2024-02-26T03:36:09;4.70;;;3.63;;
63218;SDS011;49320;52.512;13.448;2024-02-26T03:38:36;5.03;;;3.50;;
63218;SDS011;49320;52.512;13.448;2024-02-26T03:41:03;5.68;;;3.88;;
63218;SDS011;49320;52.512;13.448;2024-02-26T03:43:30;4.93;;;3.58;;
63218;SDS011;49320;52.512;13.448;2024-02-26T03:45:58;4.78;;;3.50;;
63218;SDS011;49320;52.512;13.448;2024-02-26T03:48:24;5.10;;;3.92;;
63218;SDS011;49320;52.512;13.448;2024-02-26T03:50:52;4.65;;;3.55;;
63218;SDS011;49320;52.512;13.448;2024-02-26T03:53:19;6.45;;;3.92;;
63218;SDS011;49320;52.512;13.448;2024-02-26T03:55:46;4.35;;;3.58;;
63218;SDS011;49320;52.512;13.448;2024-02-26T03:58:13;4.85;;;3.85;;
63218;SDS011;49320;52.512;13.448;2024-02-26T04:00:40;5.13;;;3.67;;
63218;SDS011;49320;52.512;13.448;2024-02-26T04:03:06;5.18;;;3.80;;
63218;SDS011;49320;52.512;13.448;2024-02-26T04:05:33;6.00;;;4.07;;
63218;SDS011;49320;52.512;13.448;2024-02-26T04:08:00;4.82;;;3.80;;
63218;SDS011;49320;52.512;13.448;2024-02-26T04:10:28;4.93;;;3.95;;
63218;SDS011;49320;52.512;13.448;2024-02-26T04:12:55;5.78;;;4.13;;
63218;SDS011;49320;52.512;13.448;2024-02-26T04:15:22;4.38;;;3.53;;
63218;SDS011;49320;52.512;13.448;2024-02-26T04:17:49;4.97;;;4.03;;
63218;SDS011;49320;52.512;13.448;2024-02-26T04:20:16;5.20;;;4.40;;
63218;SDS011;49320;52.512;13.448;2024-02-26T04:22:43;5.00;;;3.83;;
63218;SDS011;49320;52.512;13.448;2024-02-26T04:25:11;5.50;;;4.45;;
63218;SDS011;49320;52.512;13.448;2024-02-26T04:27:38;5.53;;;4.53;;
63218;SDS011;49320;52.512;13.448;2024-02-26T04:30:05;5.30;;;4.00;;
63218;SDS011;49320;52.512;13.448;2024-02-26T04:32:33;5.22;;;4.28;;
63218;SDS011;49320;52.512;13.448;2024-02-26T04:35:01;4.75;;;4.22;;
63218;SDS011;49320;52.512;13.448;2024-02-26T04:37:29;4.70;;;4.20;;
63218;SDS011;49320;52.512;13.448;2024-02-26T04:39:58;4.93;;;4.07;;
63218;SDS011;49320;52.512;13.448;2024-02-26T04:42:26;5.32;;;4.45;;
63218;SDS011;49320;52.512;13.448;2024-02-26T04:44:54;9.55;;;4.10;;
63218;SDS011;49320;52.512;13.448;2024-02-26T04:47:21;5.95;;;5.00;;
63218;SDS011;49320;52.512;13.448;2024-02-26T04:49:49;4.50;;;4.05;;
63218;SDS011;49320;52.512;13.448;2024-02-26T04:52:17;7.10;;;4.75;;
63218;SDS011;49320;52.512;13.448;2024-02-26T04:54:45;5.75;;;4.85;;
63218;SDS011;49320;52.512;13.448;2024-02-26T04:57:11;8.00;;;5.25;;
63218;SDS011;49320;52.512;13.448;2024-02-26T04:59:38;7.20;;;5.25;;
63218;SDS011;49320;52.512;13.448;2024-02-26T05:02:07;8.77;;;5.07;;
63218;SDS011;49320;52.512;13.448;2024-02-26T05:04:34;8.60;;;5.72;;
63218;SDS011;49320;52.512;13.448;2024-02-26T05:07:01;8.90;;;5.30;;
63218;SDS011;49320;52.512;13.448;2024-02-26T05:09:28;7.18;;;4.88;;
63218;SDS011;49320;52.512;13.448;2024-02-26T05:11:55;6.72;;;5.40;;
63218;SDS011;49320;52.512;13.448;2024-02-26T05:14:22;7.75;;;5.25;;
63218;SDS011;49320;52.512;13.448;2024-02-26T05:16:49;8.30;;;5.60;;
63218;SDS011;49320;52.512;13.448;2024-02-26T05:19:16;6.85;;;5.22;;
63218;SDS011;49320;52.512;13.448;2024-02-26T05:21:43;6.15;;;5.30;;
63218;SDS011;49320;52.512;13.448;2024-02-26T05:24:10;7.63;;;5.68;;
63218;SDS011;49320;52.512;13.448;2024-02-26T05:26:37;8.07;;;5.50;;
63218;SDS011;49320;52.512;13.448;2024-02-26T05:29:04;7.93;;;6.10;;
63218;SDS011;49320;52.512;13.448;2024-02-26T05:31:30;10.52;;;6.63;;
63218;SDS011;49320;52.512;13.448;2024-02-26T05:33:57;8.25;;;6.45;;
63218;SDS011;49320;52.512;13.448;2024-02-26T05:36:24;8.20;;;5.93;;
63218;SDS011;49320;52.512;13.448;2024-02-26T05:38:52;9.00;;;6.40;;
63218;SDS011;49320;52.512;13.448;2024-02-26T05:41:19;8.82;;;5.75;;
63218;SDS011;49320;52.512;13.448;2024-02-26T05:43:49;8.02;;;6.18;;
63218;SDS011;49320;52.512;13.448;2024-02-26T05:46:17;8.13;;;6.50;;
63218;SDS011;49320;52.512;13.448;2024-02-26T05:48:46;6.35;;;5.38;;
63218;SDS011;49320;52.512;13.448;2024-02-26T05:51:14;6.97;;;6.10;;
63218;SDS011;49320;52.512;13.448;2024-02-26T05:53:41;7.65;;;6.53;;
63218;SDS011;49320;52.512;13.448;2024-02-26T05:56:09;7.57;;;6.32;;
63218;SDS011;49320;52.512;13.448;2024-02-26T05:58:35;6.85;;;5.95;;
63218;SDS011;49320;52.512;13.448;2024-02-26T06:01:02;7.13;;;5.95;;
63218;SDS011;49320;52.512;13.448;2024-02-26T06:03:29;7.32;;;5.95;;
63218;SDS011;49320;52.512;13.448;2024-02-26T06:05:56;11.05;;;7.05;;
63218;SDS011;49320;52.512;13.448;2024-02-26T06:08:23;8.23;;;6.70;;
63218;SDS011;49320;52.512;13.448;2024-02-26T06:10:50;7.60;;;6.75;;
63218;SDS011;49320;52.512;13.448;2024-02-26T06:13:17;8.43;;;6.95;;
63218;SDS011;49320;52.512;13.448;2024-02-26T06:15:44;8.30;;;6.55;;
63218;SDS011;49320;52.512;13.448;2024-02-26T06:18:10;7.95;;;7.03;;
63218;SDS011;49320;52.512;13.448;2024-02-26T06:20:37;8.68;;;7.60;;
63218;SDS011;49320;52.512;13.448;2024-02-26T06:23:04;9.10;;;7.80;;
63218;SDS011;49320;52.512;13.448;2024-02-26T06:25:31;9.32;;;7.35;;
63218;SDS011;49320;52.512;13.448;2024-02-26T06:27:58;10.23;;;7.22;;
63218;SDS011;49320;52.512;13.448;2024-02-26T06:30:25;8.32;;;7.38;;
63218;SDS011;49320;52.512;13.448;2024-02-26T06:32:52;10.60;;;8.38;;
63218;SDS011;49320;52.512;13.448;2024-02-26T06:35:19;9.05;;;8.02;;
63218;SDS011;49320;52.512;13.448;2024-02-26T06:37:46;10.63;;;8.07;;
63218;SDS011;49320;52.512;13.448;2024-02-26T06:40:13;11.43;;;8.95;;
63218;SDS011;49320;52.512;13.448;2024-02-26T06:42:39;12.38;;;9.07;;
63218;SDS011;49320;52.512;13.448;2024-02-26T06:45:07;13.30;;;9.25;;
63218;SDS011;49320;52.512;13.448;2024-02-26T06:47:35;10.63;;;9.07;;
63218;SDS011;49320;52.512;13.448;2024-02-26T06:50:02;9.77;;;8.75;;
63218;SDS011;49320;52.512;13.448;2024-02-26T06:52:29;12.65;;;9.80;;
63218;SDS011;49320;52.512;13.448;2024-02-26T06:54:56;9.05;;;8.10;;
63218;SDS011;49320;52.512;13.448;2024-02-26T06:57:23;12.38;;;8.90;;
63218;SDS011;49320;52.512;13.448;2024-02-26T06:59:50;10.25;;;8.75;;
63218;SDS011;49320;52.512;13.448;2024-02-26T07:02:17;8.70;;;7.80;;
63218;SDS011;49320;52.512;13.448;2024-02-26T07:04:44;10.88;;;8.30;;
63218;SDS011;49320;52.512;13.448;2024-02-26T07:07:11;11.18;;;8.50;;
63218;SDS011;49320;52.512;13.448;2024-02-26T07:09:41;10.63;;;8.20;;
63218;SDS011;49320;52.512;13.448;2024-02-26T07:12:08;10.98;;;9.40;;
63218;SDS011;49320;52.512;13.448;2024-02-26T07:14:35;8.63;;;7.55;;
63218;SDS011;49320;52.512;13.448;2024-02-26T07:17:03;11.05;;;8.77;;
63218;SDS011;49320;52.512;13.448;2024-02-26T07:19:30;10.85;;;9.50;;
63218;SDS011;49320;52.512;13.448;2024-02-26T07:21:57;12.07;;;9.45;;
63218;SDS011;49320;52.512;13.448;2024-02-26T07:24:24;10.88;;;8.98;;
63218;SDS011;49320;52.512;13.448;2024-02-26T07:26:51;9.40;;;8.38;;
63218;SDS011;49320;52.512;13.448;2024-02-26T07:29:18;10.23;;;9.18;;
63218;SDS011;49320;52.512;13.448;2024-02-26T07:31:45;9.52;;;8.50;;
63218;SDS011;49320;52.512;13.448;2024-02-26T07:34:12;9.15;;;8.25;;
63218;SDS011;49320;52.512;13.448;2024-02-26T07:36:40;11.15;;;8.82;;
63218;SDS011;49320;52.512;13.448;2024-02-26T07:39:06;9.68;;;8.43;;
63218;SDS011;49320;52.512;13.448;2024-02-26T07:41:33;11.00;;;9.15;;
63218;SDS011;49320;52.512;13.448;2024-02-26T07:44:00;10.82;;;9.32;;
63218;SDS011;49320;52.512;13.448;2024-02-26T07:46:27;10.07;;;9.00;;
63218;SDS011;49320;52.512;13.448;2024-02-26T07:48:54;10.20;;;9.20;;
63218;SDS011;49320;52.512;13.448;2024-02-26T07:51:21;10.40;;;9.25;;
63218;SDS011;49320;52.512;13.448;2024-02-26T07:53:49;11.82;;;9.40;;
63218;SDS011;49320;52.512;13.448;2024-02-26T07:56:16;11.00;;;8.95;;
63218;SDS011;49320;52.512;13.448;2024-02-26T07:58:42;9.90;;;8.82;;
63218;SDS011;49320;52.512;13.448;2024-02-26T08:01:12;10.63;;;9.48;;
63218;SDS011;49320;52.512;13.448;2024-02-26T08:03:40;11.65;;;9.38;;
63218;SDS011;49320;52.512;13.448;2024-02-26T08:06:08;12.05;;;10.75;;
63218;SDS011;49320;52.512;13.448;2024-02-26T08:08:35;10.95;;;9.85;;
63218;SDS011;49320;52.512;13.448;2024-02-26T08:11:02;12.23;;;10.27;;
63218;SDS011;49320;52.512;13.448;2024-02-26T08:13:29;11.50;;;10.30;;
63218;SDS011;49320;52.512;13.448;2024-02-26T08:15:56;11.65;;;10.45;;
63218;SDS011;49320;52.512;13.448;2024-02-26T08:18:23;14.50;;;12.20;;
63218;SDS011;49320;52.512;13.448;2024-02-26T08:20:50;13.48;;;11.98;;
63218;SDS011;49320;52.512;13.448;2024-02-26T08:23:17;13.30;;;11.55;;
63218;SDS011;49320;52.512;13.448;2024-02-26T08:25:44;14.23;;;11.73;;
63218;SDS011;49320;52.512;13.448;2024-02-26T08:28:11;13.48;;;11.07;;
63218;SDS011;49320;52.512;13.448;2024-02-26T08:30:39;14.27;;;11.52;;
63218;SDS011;49320;52.512;13.448;2024-02-26T08:33:06;12.27;;;10.93;;
63218;SDS011;49320;52.512;13.448;2024-02-26T08:35:33;12.70;;;11.32;;
63218;SDS011;49320;52.512;13.448;2024-02-26T08:37:59;14.55;;;12.18;;
63218;SDS011;49320;52.512;13.448;2024-02-26T08:40:26;13.45;;;11.07;;
63218;SDS011;49320;52.512;13.448;2024-02-26T08:42:53;11.82;;;10.45;;
63218;SDS011;49320;52.512;13.448;2024-02-26T08:45:20;12.57;;;10.88;;
63218;SDS011;49320;52.512;13.448;2024-02-26T08:47:47;11.05;;;9.93;;
63218;SDS011;49320;52.512;13.448;2024-02-26T08:50:14;12.10;;;10.80;;
63218;SDS011;49320;52.512;13.448;2024-02-26T08:52:41;11.98;;;10.65;;
63218;SDS011;49320;52.512;13.448;2024-02-26T08:55:08;15.43;;;11.48;;
63218;SDS011;49320;52.512;13.448;2024-02-26T08:57:35;14.30;;;12.10;;
63218;SDS011;49320;52.512;13.448;2024-02-26T09:00:02;12.20;;;10.55;;
63218;SDS011;49320;52.512;13.448;2024-02-26T09:02:30;13.35;;;10.57;;
63218;SDS011;49320;52.512;13.448;2024-02-26T09:04:57;12.70;;;10.52;;
63218;SDS011;49320;52.512;13.448;2024-02-26T09:07:24;13.30;;;10.80;;
63218;SDS011;49320;52.512;13.448;2024-02-26T09:09:50;15.70;;;11.05;;
63218;SDS011;49320;52.512;13.448;2024-02-26T09:12:17;12.13;;;10.32;;
63218;SDS011;49320;52.512;13.448;2024-02-26T09:14:45;12.48;;;10.27;;
63218;SDS011;49320;52.512;13.448;2024-02-26T09:17:12;13.45;;;10.80;;
63218;SDS011;49320;52.512;13.448;2024-02-26T09:19:39;11.93;;;10.63;;
63218;SDS011;49320;52.512;13.448;2024-02-26T09:22:07;11.73;;;9.70;;
63218;SDS011;49320;52.512;13.448;2024-02-26T09:24:34;11.90;;;10.02;;
63218;SDS011;49320;52.512;13.448;2024-02-26T09:27:01;11.98;;;9.90;;
63218;SDS011;49320;52.512;13.448;2024-02-26T09:29:28;11.68;;;9.93;;
63218;SDS011;49320;52.512;13.448;2024-02-26T09:31:55;10.63;;;9.52;;
63218;SDS011;49320;52.512;13.448;2024-02-26T09:34:22;10.80;;;9.70;;
63218;SDS011;49320;52.512;13.448;2024-02-26T09:36:49;12.52;;;9.98;;
63218;SDS011;49320;52.512;13.448;2024-02-26T09:39:15;10.57;;;9.27;;
63218;SDS011;49320;52.512;13.448;2024-02-26T09:41:48;11.50;;;9.70;;
63218;SDS011;49320;52.512;13.448;2024-02-26T09:44:18;11.20;;;9.27;;
63218;SDS011;49320;52.512;13.448;2024-02-26T09:46:49;11.30;;;9.65;;
63218;SDS011;49320;52.512;13.448;2024-02-26T09:49:18;10.88;;;9.10;;
63218;SDS011;49320;52.512;13.448;2024-02-26T09:51:49;12.07;;;9.38;;
63218;SDS011;49320;52.512;13.448;2024-02-26T09:54:20;11.85;;;9.23;;
63218;SDS011;49320;52.512;13.448;2024-02-26T09:56:47;10.63;;;9.52;;
63218;SDS011;49320;52.512;13.448;2024-02-26T09:59:29;12.85;;;9.82;;
63218;SDS011;49320;52.512;13.448;2024-02-26T10:02:08;10.55;;;8.73;;
63218;SDS011;49320;52.512;13.448;2024-02-26T10:04:40;9.85;;;8.55;;
63218;SDS011;49320;52.512;13.448;2024-02-26T10:07:14;9.55;;;7.75;;
63218;SDS011;49320;52.512;13.448;2024-02-26T10:09:41;11.68;;;8.77;;
63218;SDS011;49320;52.512;13.448;2024-02-26T10:12:08;12.40;;;9.32;;
63218;SDS011;49320;52.512;13.448;2024-02-26T10:14:42;11.13;;;8.57;;
63218;SDS011;49320;52.512;13.448;2024-02-26T10:17:09;10.25;;;8.63;;
63218;SDS011;49320;52.512;13.448;2024-02-26T10:19:37;9.73;;;8.52;;
63218;SDS011;49320;52.512;13.448;2024-02-26T10:22:05;11.25;;;9.57;;
63218;SDS011;49320;52.512;13.448;2024-02-26T10:24:32;10.75;;;9.00;;
63218;SDS011;49320;52.512;13.448;2024-02-26T10:27:01;10.07;;;8.48;;
63218;SDS011;49320;52.512;13.448;2024-02-26T10:29:29;12.00;;;9.18;;
63218;SDS011;49320;52.512;13.448;2024-02-26T10:31:56;9.70;;;8.70;;
63218;SDS011;49320;52.512;13.448;2024-02-26T10:34:23;13.00;;;7.95;;
63218;SDS011;49320;52.512;13.448;2024-02-26T10:36:50;9.05;;;8.10;;
63218;SDS011;49320;52.512;13.448;2024-02-26T10:39:20;9.48;;;8.15;;
63218;SDS011;49320;52.512;13.448;2024-02-26T10:41:48;9.68;;;8.55;;
63218;SDS011;49320;52.512;13.448;2024-02-26T10:44:16;9.00;;;7.70;;
63218;SDS011;49320;52.512;13.448;2024-02-26T10:46:46;9.90;;;7.63;;
63218;SDS011;49320;52.512;13.448;2024-02-26T10:49:17;9.75;;;7.88;;
63218;SDS011;49320;52.512;13.448;2024-02-26T10:51:49;9.02;;;7.43;;
63218;SDS011;49320;52.512;13.448;2024-02-26T10:54:23;9.48;;;7.72;;
63218;SDS011;49320;52.512;13.448;2024-02-26T10:56:55;9.88;;;7.40;;
63218;SDS011;49320;52.512;13.448;2024-02-26T10:59:25;8.88;;;7.45;;
63218;SDS011;49320;52.512;13.448;2024-02-26T11:01:52;7.97;;;7.15;;
63218;SDS011;49320;52.512;13.448;2024-02-26T11:04:22;10.77;;;7.10;;
63218;SDS011;49320;52.512;13.448;2024-02-26T11:06:51;7.55;;;6.60;;
63218;SDS011;49320;52.512;13.448;2024-02-26T11:09:23;10.30;;;7.47;;
63218;SDS011;49320;52.512;13.448;2024-02-26T11:11:50;8.52;;;7.10;;
63218;SDS011;49320;52.512;13.448;2024-02-26T11:14:21;8.32;;;7.40;;
63218;SDS011;49320;52.512;13.448;2024-02-26T11:16:52;7.13;;;6.05;;
63218;SDS011;49320;52.512;13.448;2024-02-26T11:19:22;8.23;;;6.28;;
63218;SDS011;49320;52.512;13.448;2024-02-26T11:21:53;9.13;;;7.10;;
63218;SDS011;49320;52.512;13.448;2024-02-26T11:24:19;7.22;;;6.43;;
63218;SDS011;49320;52.512;13.448;2024-02-26T11:26:48;7.68;;;6.40;;
63218;SDS011;49320;52.512;13.448;2024-02-26T11:29:26;7.53;;;6.03;;
63218;SDS011;49320;52.512;13.448;2024-02-26T11:32:04;7.65;;;6.05;;
63218;SDS011;49320;52.512;13.448;2024-02-26T11:34:32;7.13;;;5.82;;
63218;SDS011;49320;52.512;13.448;2024-02-26T11:37:08;7.30;;;6.38;;
63218;SDS011;49320;52.512;13.448;2024-02-26T11:39:41;7.78;;;6.18;;
63218;SDS011;49320;52.512;13.448;2024-02-26T11:42:09;6.50;;;5.88;;
63218;SDS011;49320;52.512;13.448;2024-02-26T11:44:39;7.15;;;6.03;;
63218;SDS011;49320;52.512;13.448;2024-02-26T11:47:20;7.43;;;6.32;;
63218;SDS011;49320;52.512;13.448;2024-02-26T11:49:48;9.20;;;6.82;;
63218;SDS011;49320;52.512;13.448;2024-02-26T11:52:16;9.10;;;7.50;;
63218;SDS011;49320;52.512;13.448;2024-02-26T11:54:47;8.45;;;7.13;;
63218;SDS011;49320;52.512;13.448;2024-02-26T11:57:37;7.25;;;5.93;;
63218;SDS011;49320;52.512;13.448;2024-02-26T12:05:12;9.07;;;8.18;;
63218;SDS011;49320;52.512;13.448;2024-02-26T12:07:48;10.23;;;8.05;;
63218;SDS011;49320;52.512;13.448;2024-02-26T12:10:23;8.45;;;7.57;;
63218;SDS011;49320;52.512;13.448;2024-02-26T12:12:59;8.95;;;8.05;;
63218;SDS011;49320;52.512;13.448;2024-02-26T12:15:33;10.10;;;8.20;;
63218;SDS011;49320;52.512;13.448;2024-02-26T12:18:04;9.85;;;8.60;;
63218;SDS011;49320;52.512;13.448;2024-02-26T12:20:37;9.23;;;8.23;;
63218;SDS011;49320;52.512;13.448;2024-02-26T12:23:04;9.07;;;7.72;;
63218;SDS011;49320;52.512;13.448;2024-02-26T12:25:31;9.05;;;8.10;;
63218;SDS011;49320;52.512;13.448;2024-02-26T12:27:59;8.82;;;7.82;;
63218;SDS011;49320;52.512;13.448;2024-02-26T12:30:26;7.88;;;7.07;;
63218;SDS011;49320;52.512;13.448;2024-02-26T12:32:56;9.25;;;7.35;;
63218;SDS011;49320;52.512;13.448;2024-02-26T12:35:24;9.63;;;8.15;;
63218;SDS011;49320;52.512;13.448;2024-02-26T12:37:52;9.48;;;7.85;;
63218;SDS011;49320;52.512;13.448;2024-02-26T12:40:20;9.18;;;8.13;;
63218;SDS011;49320;52.512;13.448;2024-02-26T12:42:47;9.65;;;7.07;;
63218;SDS011;49320;52.512;13.448;2024-02-26T12:45:15;8.63;;;7.43;;
63218;SDS011;49320;52.512;13.448;2024-02-26T12:47:43;9.27;;;7.03;;
63218;SDS011;49320;52.512;13.448;2024-02-26T12:50:16;8.32;;;7.47;;
63218;SDS011;49320;52.512;13.448;2024-02-26T12:52:44;8.63;;;7.70;;
63218;SDS011;49320;52.512;13.448;2024-02-26T12:55:16;7.82;;;6.85;;
63218;SDS011;49320;52.512;13.448;2024-02-26T12:57:46;8.52;;;6.75;;
63218;SDS011;49320;52.512;13.448;2024-02-26T13:00:16;7.80;;;6.63;;
63218;SDS011;49320;52.512;13.448;2024-02-26T13:02:48;7.13;;;6.43;;
63218;SDS011;49320;52.512;13.448;2024-02-26T13:05:18;6.15;;;5.55;;
63218;SDS011;49320;52.512;13.448;2024-02-26T13:07:46;6.53;;;5.80;;
63218;SDS011;49320;52.512;13.448;2024-02-26T13:10:14;7.28;;;6.18;;
63218;SDS011;49320;52.512;13.448;2024-02-26T13:12:44;6.55;;;5.38;;
63218;SDS011;49320;52.512;13.448;2024-02-26T13:15:16;6.50;;;5.50;;
63218;SDS011;49320;52.512;13.448;2024-02-26T13:17:45;7.10;;;5.45;;
63218;SDS011;49320;52.512;13.448;2024-02-26T13:20:13;7.35;;;5.10;;
63218;SDS011;49320;52.512;13.448;2024-02-26T13:23:01;5.78;;;4.60;;
63218;SDS011;49320;52.512;13.448;2024-02-26T13:25:33;5.28;;;4.78;;
63218;SDS011;49320;52.512;13.448;2024-02-26T13:28:08;5.82;;;4.88;;
63218;SDS011;49320;52.512;13.448;2024-02-26T13:30:54;5.55;;;4.95;;
63218;SDS011;49320;52.512;13.448;2024-02-26T13:33:26;5.95;;;4.55;;
63218;SDS011;49320;52.512;13.448;2024-02-26T13:35:55;6.30;;;4.82;;
63218;SDS011;49320;52.512;13.448;2024-02-26T13:38:23;4.70;;;3.88;;
63218;SDS011;49320;52.512;13.448;2024-02-26T13:40:51;5.65;;;5.05;;
63218;SDS011;49320;52.512;13.448;2024-02-26T13:43:19;6.25;;;4.50;;
63218;SDS011;49320;52.512;13.448;2024-02-26T13:45:46;5.68;;;4.43;;
63218;SDS011;49320;52.512;13.448;2024-02-26T13:48:14;5.15;;;4.30;;
63218;SDS011;49320;52.512;13.448;2024-02-26T13:50:42;6.20;;;4.53;;
63218;SDS011;49320;52.512;13.448;2024-02-26T13:53:09;5.22;;;4.30;;
63218;SDS011;49320;52.512;13.448;2024-02-26T13:55:37;6.38;;;4.90;;
63218;SDS011;49320;52.512;13.448;2024-02-26T13:58:08;5.65;;;4.70;;
63218;SDS011;49320;52.512;13.448;2024-02-26T14:00:40;9.23;;;5.20;;
63218;SDS011;49320;52.512;13.448;2024-02-26T14:03:08;5.43;;;4.93;;
63218;SDS011;49320;52.512;13.448;2024-02-26T14:05:35;6.40;;;4.90;;
63218;SDS011;49320;52.512;13.448;2024-02-26T14:08:03;6.20;;;4.85;;
63218;SDS011;49320;52.512;13.448;2024-02-26T14:10:30;5.68;;;4.90;;
63218;SDS011;49320;52.512;13.448;2024-02-26T14:12:58;5.28;;;4.43;;
63218;SDS011;49320;52.512;13.448;2024-02-26T14:15:27;7.10;;;5.00;;
63218;SDS011;49320;52.512;13.448;2024-02-26T14:17:55;6.90;;;4.90;;
63218;SDS011;49320;52.512;13.448;2024-02-26T14:20:23;8.18;;;5.45;;
63218;SDS011;49320;52.512;13.448;2024-02-26T14:22:52;6.70;;;5.28;;
63218;SDS011;49320;52.512;13.448;2024-02-26T14:25:22;5.93;;;4.60;;
63218;SDS011;49320;52.512;13.448;2024-02-26T14:27:51;6.40;;;5.40;;
63218;SDS011;49320;52.512;13.448;2024-02-26T14:30:18;6.55;;;5.28;;
63218;SDS011;49320;52.512;13.448;2024-02-26T14:32:45;6.97;;;5.57;;
63218;SDS011;49320;52.512;13.448;2024-02-26T14:35:12;7.00;;;5.10;;
63218;SDS011;49320;52.512;13.448;2024-02-26T14:37:43;6.68;;;4.68;;
63218;SDS011;49320;52.512;13.448;2024-02-26T14:40:13;5.88;;;5.10;;